Yang Mei Hu — BQCG — position and weather

sailwx.info

Track history (hours):
 
Tides and Currents Weather Stations Pressure Air Temp Water Temp Dewpoint Dewpoint Depression Visibility Wind Speed Wind Dir Waves Ship Positions

Yang Mei Hu

Last reported at 2016-Aug-14 21:25 UTC. Time now 2016-Aug-25 00:59 UTC.
Position N 36°48' E 123°53'.
Warning: this ship's position is 10 days out of date.

Length 245 m; draft 9 m.

Type: Tanker. MMSI: 413858000.

Date/timePositionNaut miles runAvg speedWind from/ knotsBaromVisibWave heightAir tempDewpointWater temp
2016-Aug-14 21:25N 36°48' E 123°53'4013.9
2016-Aug-14 18:32N 37°22' E 123°27'1413.9
2016-Aug-14 17:33N 37°34' E 123°18'1414.1
2016-Aug-14 16:34N 37°46' E 123°08'1514.6
2016-Aug-14 15:34N 37°57' E 122°57'1615.0
2016-Aug-14 14:27N 38°11' E 122°45'1315.0
2016-Aug-14 13:34N 38°22' E 122°35'1614.6
2016-Aug-14 12:27N 38°35' E 122°23'1314.5
2016-Aug-14 11:33N 38°45' E 122°13'  
Track history (hours):
 
Tides and Currents Weather Stations Pressure Air Temp Water Temp Dewpoint Dewpoint Depression Visibility Wind Speed Wind Dir Waves Ship Positions

Yang Mei Hu

Last reported at 2016-Aug-14 21:25 UTC. Time now 2016-Aug-25 00:59 UTC.
Position N 36°48' E 123°53'.
Warning: this ship's position is 10 days out of date.

Length 245 m; draft 9 m.

Type: Tanker. MMSI: 413858000.

Date/timePositionNaut miles runAvg speedWind from/ knotsBaromVisibWave heightAir tempDewpointWater temp
2016-Aug-14 21:25N 36°48' E 123°53'4013.9
2016-Aug-14 18:32N 37°22' E 123°27'1413.9
2016-Aug-14 17:33N 37°34' E 123°18'1414.1
2016-Aug-14 16:34N 37°46' E 123°08'1514.6
2016-Aug-14 15:34N 37°57' E 122°57'1615.0
2016-Aug-14 14:27N 38°11' E 122°45'1315.0
2016-Aug-14 13:34N 38°22' E 122°35'1614.6
2016-Aug-14 12:27N 38°35' E 122°23'1314.5
2016-Aug-14 11:33N 38°45' E 122°13'  

Dump ship's entire track history